sensor_id;sensor_type;location;lat;lon;timestamp;temperature;humidity
13174;DHT22;6652;48.802;9.190;2023-02-28T00:00:49;-1.40;92.50
13174;DHT22;6652;48.802;9.190;2023-02-28T00:03:16;-1.50;92.40
13174;DHT22;6652;48.802;9.190;2023-02-28T00:05:43;-1.40;92.50
13174;DHT22;6652;48.802;9.190;2023-02-28T00:08:10;-1.50;92.60
13174;DHT22;6652;48.802;9.190;2023-02-28T00:10:38;-1.10;92.80
13174;DHT22;6652;48.802;9.190;2023-02-28T00:13:06;-1.50;92.70
13174;DHT22;6652;48.802;9.190;2023-02-28T00:15:33;-1.50;92.90
13174;DHT22;6652;48.802;9.190;2023-02-28T00:18:00;-1.50;93.00
13174;DHT22;6652;48.802;9.190;2023-02-28T00:20:27;-1.50;93.20
13174;DHT22;6652;48.802;9.190;2023-02-28T00:22:55;-1.60;93.20
13174;DHT22;6652;48.802;9.190;2023-02-28T00:25:23;-1.00;93.60
13174;DHT22;6652;48.802;9.190;2023-02-28T00:27:51;-1.60;93.50
13174;DHT22;6652;48.802;9.190;2023-02-28T00:30:21;-1.60;93.50
13174;DHT22;6652;48.802;9.190;2023-02-28T00:32:48;-1.70;93.60
13174;DHT22;6652;48.802;9.190;2023-02-28T00:35:16;-1.60;93.80
13174;DHT22;6652;48.802;9.190;2023-02-28T00:37:43;-1.70;93.80
13174;DHT22;6652;48.802;9.190;2023-02-28T00:40:10;-1.70;94.10
13174;DHT22;6652;48.802;9.190;2023-02-28T00:42:38;-1.70;94.20
13174;DHT22;6652;48.802;9.190;2023-02-28T00:45:06;-1.70;94.30
13174;DHT22;6652;48.802;9.190;2023-02-28T00:47:35;-1.70;94.30
13174;DHT22;6652;48.802;9.190;2023-02-28T00:50:02;-1.10;94.70
13174;DHT22;6652;48.802;9.190;2023-02-28T00:52:29;-1.70;94.60
13174;DHT22;6652;48.802;9.190;2023-02-28T00:54:56;-1.70;94.70
13174;DHT22;6652;48.802;9.190;2023-02-28T00:57:23;-1.70;94.70
13174;DHT22;6652;48.802;9.190;2023-02-28T00:59:49;-1.70;95.00
13174;DHT22;6652;48.802;9.190;2023-02-28T01:02:16;-1.70;95.10
13174;DHT22;6652;48.802;9.190;2023-02-28T01:04:47;-1.80;95.10
13174;DHT22;6652;48.802;9.190;2023-02-28T01:07:14;-1.70;95.20
13174;DHT22;6652;48.802;9.190;2023-02-28T01:09:41;-1.80;95.40
13174;DHT22;6652;48.802;9.190;2023-02-28T01:12:08;-1.80;95.50
13174;DHT22;6652;48.802;9.190;2023-02-28T01:14:35;-1.80;95.70
13174;DHT22;6652;48.802;9.190;2023-02-28T01:17:02;-0.60;96.40
13174;DHT22;6652;48.802;9.190;2023-02-28T01:19:29;-1.80;96.00
13174;DHT22;6652;48.802;9.190;2023-02-28T01:22:00;-1.70;96.00
13174;DHT22;6652;48.802;9.190;2023-02-28T01:24:27;-1.80;96.20
13174;DHT22;6652;48.802;9.190;2023-02-28T01:26:54;-1.80;96.30
13174;DHT22;6652;48.802;9.190;2023-02-28T01:29:21;-1.80;96.60
13174;DHT22;6652;48.802;9.190;2023-02-28T01:31:48;-1.80;96.80
13174;DHT22;6652;48.802;9.190;2023-02-28T01:34:14;-1.90;96.90
13174;DHT22;6652;48.802;9.190;2023-02-28T01:36:41;-1.80;97.20
13174;DHT22;6652;48.802;9.190;2023-02-28T01:39:09;-1.80;97.30
13174;DHT22;6652;48.802;9.190;2023-02-28T01:41:38;-1.80;97.40
13174;DHT22;6652;48.802;9.190;2023-02-28T01:44:53;-1.80;97.50
13174;DHT22;6652;48.802;9.190;2023-02-28T01:46:54;-1.90;97.70
13174;DHT22;6652;48.802;9.190;2023-02-28T01:49:21;-1.90;97.80
13174;DHT22;6652;48.802;9.190;2023-02-28T01:51:50;-1.80;98.00
13174;DHT22;6652;48.802;9.190;2023-02-28T01:54:26;-1.80;98.20
13174;DHT22;6652;48.802;9.190;2023-02-28T01:56:56;-1.90;98.20
13174;DHT22;6652;48.802;9.190;2023-02-28T01:59:27;-1.80;98.50
13174;DHT22;6652;48.802;9.190;2023-02-28T02:01:56;-1.80;98.70
13174;DHT22;6652;48.802;9.190;2023-02-28T02:04:24;-1.80;98.80
13174;DHT22;6652;48.802;9.190;2023-02-28T02:06:53;-1.80;98.80
13174;DHT22;6652;48.802;9.190;2023-02-28T02:09:21;-1.70;99.00
13174;DHT22;6652;48.802;9.190;2023-02-28T02:11:48;-1.80;99.20
13174;DHT22;6652;48.802;9.190;2023-02-28T02:14:38;-1.80;99.40
13174;DHT22;6652;48.802;9.190;2023-02-28T02:17:19;-1.80;99.50
13174;DHT22;6652;48.802;9.190;2023-02-28T02:26:16;-1.80;99.90
13174;DHT22;6652;48.802;9.190;2023-02-28T02:29:15;-1.80;99.90
13174;DHT22;6652;48.802;9.190;2023-02-28T02:32:06;-1.70;99.90
13174;DHT22;6652;48.802;9.190;2023-02-28T02:34:55;-1.70;99.90
13174;DHT22;6652;48.802;9.190;2023-02-28T02:37:29;-1.70;99.90
13174;DHT22;6652;48.802;9.190;2023-02-28T02:40:03;-1.70;99.90
13174;DHT22;6652;48.802;9.190;2023-02-28T02:42:40;-1.70;99.90
13174;DHT22;6652;48.802;9.190;2023-02-28T02:45:10;-1.70;99.90
13174;DHT22;6652;48.802;9.190;2023-02-28T02:47:39;-1.70;99.90
13174;DHT22;6652;48.802;9.190;2023-02-28T02:50:12;-1.70;99.90
13174;DHT22;6652;48.802;9.190;2023-02-28T02:52:44;-1.60;99.90
13174;DHT22;6652;48.802;9.190;2023-02-28T02:55:13;-1.60;99.90
13174;DHT22;6652;48.802;9.190;2023-02-28T02:57:47;-1.60;99.90
13174;DHT22;6652;48.802;9.190;2023-02-28T03:00:18;-1.60;99.90
13174;DHT22;6652;48.802;9.190;2023-02-28T03:02:47;-1.60;99.90
13174;DHT22;6652;48.802;9.190;2023-02-28T03:05:20;-1.60;99.90
13174;DHT22;6652;48.802;9.190;2023-02-28T03:07:48;-1.60;99.90
13174;DHT22;6652;48.802;9.190;2023-02-28T03:10:29;-0.90;99.90
13174;DHT22;6652;48.802;9.190;2023-02-28T03:16:03;-1.50;99.90
13174;DHT22;6652;48.802;9.190;2023-02-28T03:18:38;-1.50;99.90
13174;DHT22;6652;48.802;9.190;2023-02-28T03:21:16;-1.50;99.90
13174;DHT22;6652;48.802;9.190;2023-02-28T03:23:53;-1.50;99.90
13174;DHT22;6652;48.802;9.190;2023-02-28T03:26:23;-1.50;99.90
13174;DHT22;6652;48.802;9.190;2023-02-28T03:28:57;-1.50;99.90
13174;DHT22;6652;48.802;9.190;2023-02-28T03:31:30;-1.50;99.90
13174;DHT22;6652;48.802;9.190;2023-02-28T03:34:05;-1.20;99.90
13174;DHT22;6652;48.802;9.190;2023-02-28T03:36:38;-1.40;99.90
13174;DHT22;6652;48.802;9.190;2023-02-28T03:39:13;-1.40;99.90
13174;DHT22;6652;48.802;9.190;2023-02-28T03:41:43;-1.40;99.90
13174;DHT22;6652;48.802;9.190;2023-02-28T03:44:16;-1.40;99.90
13174;DHT22;6652;48.802;9.190;2023-02-28T03:46:48;-1.40;99.90
13174;DHT22;6652;48.802;9.190;2023-02-28T03:49:20;-1.40;99.90
13174;DHT22;6652;48.802;9.190;2023-02-28T03:51:51;-1.30;99.90
13174;DHT22;6652;48.802;9.190;2023-02-28T03:54:21;-1.40;99.90
13174;DHT22;6652;48.802;9.190;2023-02-28T03:56:53;-1.30;99.90
13174;DHT22;6652;48.802;9.190;2023-02-28T03:59:25;-1.30;99.90
13174;DHT22;6652;48.802;9.190;2023-02-28T04:01:53;-1.00;99.90
13174;DHT22;6652;48.802;9.190;2023-02-28T04:04:21;-1.30;99.90
13174;DHT22;6652;48.802;9.190;2023-02-28T04:06:52;-1.30;99.90
13174;DHT22;6652;48.802;9.190;2023-02-28T04:09:27;-1.20;99.90
13174;DHT22;6652;48.802;9.190;2023-02-28T04:11:54;-1.20;99.90
13174;DHT22;6652;48.802;9.190;2023-02-28T04:14:22;-1.20;99.90
13174;DHT22;6652;48.802;9.190;2023-02-28T04:16:49;-1.20;99.90
13174;DHT22;6652;48.802;9.190;2023-02-28T04:19:17;-1.10;99.90
13174;DHT22;6652;48.802;9.190;2023-02-28T04:21:45;-1.10;99.90
13174;DHT22;6652;48.802;9.190;2023-02-28T04:24:15;-1.10;99.90
13174;DHT22;6652;48.802;9.190;2023-02-28T04:26:44;-1.10;99.90
13174;DHT22;6652;48.802;9.190;2023-02-28T04:29:12;-1.10;99.90
13174;DHT22;6652;48.802;9.190;2023-02-28T04:31:39;-1.10;99.90
13174;DHT22;6652;48.802;9.190;2023-02-28T04:34:06;-1.10;99.90
13174;DHT22;6652;48.802;9.190;2023-02-28T04:36:33;-1.10;99.90
13174;DHT22;6652;48.802;9.190;2023-02-28T04:39:00;-1.10;99.90
13174;DHT22;6652;48.802;9.190;2023-02-28T04:41:28;-1.10;99.90
13174;DHT22;6652;48.802;9.190;2023-02-28T04:43:55;-1.10;99.90
13174;DHT22;6652;48.802;9.190;2023-02-28T04:46:22;-1.10;99.90
13174;DHT22;6652;48.802;9.190;2023-02-28T04:48:49;-1.00;99.90
13174;DHT22;6652;48.802;9.190;2023-02-28T04:51:18;-1.00;99.90
13174;DHT22;6652;48.802;9.190;2023-02-28T04:53:45;-1.00;99.90
13174;DHT22;6652;48.802;9.190;2023-02-28T04:56:13;-1.00;99.90
13174;DHT22;6652;48.802;9.190;2023-02-28T04:58:42;-1.00;99.90
13174;DHT22;6652;48.802;9.190;2023-02-28T05:01:18;-1.00;99.90
13174;DHT22;6652;48.802;9.190;2023-02-28T05:03:45;-1.00;99.90
13174;DHT22;6652;48.802;9.190;2023-02-28T05:06:13;-1.00;99.90
13174;DHT22;6652;48.802;9.190;2023-02-28T05:08:40;-1.00;99.90
13174;DHT22;6652;48.802;9.190;2023-02-28T05:11:14;-1.00;99.90
13174;DHT22;6652;48.802;9.190;2023-02-28T05:13:42;-1.00;99.90
13174;DHT22;6652;48.802;9.190;2023-02-28T05:16:09;-1.00;99.90
13174;DHT22;6652;48.802;9.190;2023-02-28T05:18:36;-1.00;99.90
13174;DHT22;6652;48.802;9.190;2023-02-28T05:21:03;-1.00;99.90
13174;DHT22;6652;48.802;9.190;2023-02-28T05:23:30;-0.90;99.90
13174;DHT22;6652;48.802;9.190;2023-02-28T05:25:57;-1.00;99.90
13174;DHT22;6652;48.802;9.190;2023-02-28T05:28:23;-0.80;99.90
13174;DHT22;6652;48.802;9.190;2023-02-28T05:30:51;-0.90;99.90
13174;DHT22;6652;48.802;9.190;2023-02-28T05:33:18;-0.90;99.90
13174;DHT22;6652;48.802;9.190;2023-02-28T05:35:45;-0.90;99.90
13174;DHT22;6652;48.802;9.190;2023-02-28T05:38:12;-0.90;99.90
13174;DHT22;6652;48.802;9.190;2023-02-28T05:40:39;-0.90;99.90
13174;DHT22;6652;48.802;9.190;2023-02-28T05:43:06;-0.90;99.90
13174;DHT22;6652;48.802;9.190;2023-02-28T05:45:35;-0.90;99.90
13174;DHT22;6652;48.802;9.190;2023-02-28T05:48:03;-0.90;99.90
13174;DHT22;6652;48.802;9.190;2023-02-28T05:50:30;-0.90;99.90
13174;DHT22;6652;48.802;9.190;2023-02-28T05:52:56;-0.90;99.90
13174;DHT22;6652;48.802;9.190;2023-02-28T05:55:23;-0.80;99.90
13174;DHT22;6652;48.802;9.190;2023-02-28T05:57:50;-0.80;99.90
13174;DHT22;6652;48.802;9.190;2023-02-28T06:00:17;-0.80;99.90
13174;DHT22;6652;48.802;9.190;2023-02-28T06:02:44;-0.90;99.90
13174;DHT22;6652;48.802;9.190;2023-02-28T06:05:16;-0.80;99.90
13174;DHT22;6652;48.802;9.190;2023-02-28T06:07:43;-0.80;99.90
13174;DHT22;6652;48.802;9.190;2023-02-28T06:10:11;-0.70;99.90
13174;DHT22;6652;48.802;9.190;2023-02-28T06:12:38;-0.70;99.90
13174;DHT22;6652;48.802;9.190;2023-02-28T06:15:09;-0.70;99.90
13174;DHT22;6652;48.802;9.190;2023-02-28T06:17:38;-0.70;99.90
13174;DHT22;6652;48.802;9.190;2023-02-28T06:20:06;-0.70;99.90
13174;DHT22;6652;48.802;9.190;2023-02-28T06:22:35;-0.70;99.90
13174;DHT22;6652;48.802;9.190;2023-02-28T06:25:02;-0.70;99.90
13174;DHT22;6652;48.802;9.190;2023-02-28T06:27:30;-0.70;99.90
13174;DHT22;6652;48.802;9.190;2023-02-28T06:29:56;-0.70;99.90
13174;DHT22;6652;48.802;9.190;2023-02-28T06:32:23;-0.70;99.90
13174;DHT22;6652;48.802;9.190;2023-02-28T06:34:50;-0.70;99.90
13174;DHT22;6652;48.802;9.190;2023-02-28T06:37:17;-0.70;99.90
13174;DHT22;6652;48.802;9.190;2023-02-28T06:39:45;-0.70;99.90
13174;DHT22;6652;48.802;9.190;2023-02-28T06:42:12;-0.50;99.90
13174;DHT22;6652;48.802;9.190;2023-02-28T06:44:39;-0.60;99.90
13174;DHT22;6652;48.802;9.190;2023-02-28T06:47:06;-0.60;99.90
13174;DHT22;6652;48.802;9.190;2023-02-28T06:49:34;-0.60;99.90
13174;DHT22;6652;48.802;9.190;2023-02-28T06:52:01;-0.60;99.90
13174;DHT22;6652;48.802;9.190;2023-02-28T06:54:28;-0.60;99.90
13174;DHT22;6652;48.802;9.190;2023-02-28T06:56:57;-0.60;99.90
13174;DHT22;6652;48.802;9.190;2023-02-28T06:59:24;-0.60;99.90
13174;DHT22;6652;48.802;9.190;2023-02-28T07:01:51;-0.50;99.90
13174;DHT22;6652;48.802;9.190;2023-02-28T07:04:17;-0.50;99.90
13174;DHT22;6652;48.802;9.190;2023-02-28T07:06:44;-0.50;99.90
13174;DHT22;6652;48.802;9.190;2023-02-28T07:09:11;-0.40;99.90
13174;DHT22;6652;48.802;9.190;2023-02-28T07:11:40;-0.40;99.90
13174;DHT22;6652;48.802;9.190;2023-02-28T07:14:09;-0.40;99.90
13174;DHT22;6652;48.802;9.190;2023-02-28T07:16:36;-0.30;99.90
13174;DHT22;6652;48.802;9.190;2023-02-28T07:19:03;-0.30;99.90
13174;DHT22;6652;48.802;9.190;2023-02-28T07:21:29;-0.30;99.90
13174;DHT22;6652;48.802;9.190;2023-02-28T07:23:56;-0.30;99.90
13174;DHT22;6652;48.802;9.190;2023-02-28T07:26:23;-0.30;99.90
13174;DHT22;6652;48.802;9.190;2023-02-28T07:28:50;-0.30;99.90
13174;DHT22;6652;48.802;9.190;2023-02-28T07:31:18;-0.30;99.90
13174;DHT22;6652;48.802;9.190;2023-02-28T07:33:45;-0.20;99.90
13174;DHT22;6652;48.802;9.190;2023-02-28T07:36:13;-0.20;99.90
13174;DHT22;6652;48.802;9.190;2023-02-28T07:38:41;-0.20;99.90
13174;DHT22;6652;48.802;9.190;2023-02-28T07:41:09;-0.20;99.90
13174;DHT22;6652;48.802;9.190;2023-02-28T07:43:36;-0.10;99.90
13174;DHT22;6652;48.802;9.190;2023-02-28T07:46:04;-0.10;99.90
13174;DHT22;6652;48.802;9.190;2023-02-28T07:48:33;-0.10;99.90
13174;DHT22;6652;48.802;9.190;2023-02-28T07:51:00;-0.10;99.90
13174;DHT22;6652;48.802;9.190;2023-02-28T07:53:27;-0.10;99.90
13174;DHT22;6652;48.802;9.190;2023-02-28T07:55:55;-0.10;99.90
13174;DHT22;6652;48.802;9.190;2023-02-28T07:58:23;0.00;99.90
13174;DHT22;6652;48.802;9.190;2023-02-28T08:00:50;0.00;99.90
13174;DHT22;6652;48.802;9.190;2023-02-28T08:03:17;0.00;99.90
13174;DHT22;6652;48.802;9.190;2023-02-28T08:05:46;0.10;99.90
13174;DHT22;6652;48.802;9.190;2023-02-28T08:08:13;0.10;99.90
13174;DHT22;6652;48.802;9.190;2023-02-28T08:10:40;0.10;99.90
13174;DHT22;6652;48.802;9.190;2023-02-28T08:13:07;0.10;99.90
13174;DHT22;6652;48.802;9.190;2023-02-28T08:15:34;0.10;99.90
13174;DHT22;6652;48.802;9.190;2023-02-28T08:18:03;0.10;99.90
13174;DHT22;6652;48.802;9.190;2023-02-28T08:20:30;0.20;99.90
13174;DHT22;6652;48.802;9.190;2023-02-28T08:22:58;0.20;99.90
13174;DHT22;6652;48.802;9.190;2023-02-28T08:25:25;0.20;99.90
13174;DHT22;6652;48.802;9.190;2023-02-28T08:27:52;0.20;99.90
13174;DHT22;6652;48.802;9.190;2023-02-28T08:30:19;0.30;99.90
13174;DHT22;6652;48.802;9.190;2023-02-28T08:32:45;0.30;99.90
13174;DHT22;6652;48.802;9.190;2023-02-28T08:35:12;0.30;99.90
13174;DHT22;6652;48.802;9.190;2023-02-28T08:37:39;0.30;99.90
13174;DHT22;6652;48.802;9.190;2023-02-28T08:40:10;0.30;99.90
13174;DHT22;6652;48.802;9.190;2023-02-28T08:42:39;0.40;99.90
13174;DHT22;6652;48.802;9.190;2023-02-28T08:45:07;0.40;99.90
13174;DHT22;6652;48.802;9.190;2023-02-28T08:47:33;0.40;99.90
13174;DHT22;6652;48.802;9.190;2023-02-28T08:50:00;0.50;99.90
13174;DHT22;6652;48.802;9.190;2023-02-28T08:52:27;0.50;99.90
13174;DHT22;6652;48.802;9.190;2023-02-28T08:54:57;0.60;99.90
13174;DHT22;6652;48.802;9.190;2023-02-28T08:57:25;0.70;99.90
13174;DHT22;6652;48.802;9.190;2023-02-28T08:59:53;0.60;99.90
13174;DHT22;6652;48.802;9.190;2023-02-28T09:02:19;0.70;99.90
13174;DHT22;6652;48.802;9.190;2023-02-28T09:04:46;0.70;99.90
13174;DHT22;6652;48.802;9.190;2023-02-28T09:07:13;0.70;99.90
13174;DHT22;6652;48.802;9.190;2023-02-28T09:09:40;0.80;99.90
13174;DHT22;6652;48.802;9.190;2023-02-28T09:12:19;0.80;99.90
13174;DHT22;6652;48.802;9.190;2023-02-28T09:14:47;0.90;99.90
13174;DHT22;6652;48.802;9.190;2023-02-28T09:17:14;1.00;99.90
13174;DHT22;6652;48.802;9.190;2023-02-28T09:19:40;1.00;99.90
13174;DHT22;6652;48.802;9.190;2023-02-28T09:22:08;1.10;99.90
13174;DHT22;6652;48.802;9.190;2023-02-28T09:24:35;1.10;99.90
13174;DHT22;6652;48.802;9.190;2023-02-28T09:27:02;1.10;99.90
13174;DHT22;6652;48.802;9.190;2023-02-28T09:29:29;1.20;99.90
13174;DHT22;6652;48.802;9.190;2023-02-28T09:31:59;1.30;99.90
13174;DHT22;6652;48.802;9.190;2023-02-28T09:34:43;1.50;99.80
13174;DHT22;6652;48.802;9.190;2023-02-28T09:37:10;2.70;99.80
13174;DHT22;6652;48.802;9.190;2023-02-28T09:39:41;1.50;99.30
13174;DHT22;6652;48.802;9.190;2023-02-28T09:42:25;1.50;99.00
13174;DHT22;6652;48.802;9.190;2023-02-28T09:45:19;1.90;99.10
13174;DHT22;6652;48.802;9.190;2023-02-28T09:48:01;1.70;98.90
13174;DHT22;6652;48.802;9.190;2023-02-28T09:50:32;1.60;98.70
13174;DHT22;6652;48.802;9.190;2023-02-28T09:53:03;1.70;98.80
13174;DHT22;6652;48.802;9.190;2023-02-28T09:55:35;1.70;98.50
13174;DHT22;6652;48.802;9.190;2023-02-28T09:58:04;1.60;98.40
13174;DHT22;6652;48.802;9.190;2023-02-28T10:00:33;1.60;98.40
13174;DHT22;6652;48.802;9.190;2023-02-28T10:03:29;1.60;98.40
13174;DHT22;6652;48.802;9.190;2023-02-28T10:06:00;1.70;98.50
13174;DHT22;6652;48.802;9.190;2023-02-28T10:08:33;1.80;98.40
13174;DHT22;6652;48.802;9.190;2023-02-28T10:11:07;2.00;98.10
13174;DHT22;6652;48.802;9.190;2023-02-28T10:13:40;2.10;98.00
13174;DHT22;6652;48.802;9.190;2023-02-28T10:16:13;2.20;97.80
13174;DHT22;6652;48.802;9.190;2023-02-28T10:18:47;2.20;97.50
13174;DHT22;6652;48.802;9.190;2023-02-28T10:21:21;2.30;97.20
13174;DHT22;6652;48.802;9.190;2023-02-28T10:23:55;2.30;97.40
13174;DHT22;6652;48.802;9.190;2023-02-28T10:26:26;2.30;97.10
13174;DHT22;6652;48.802;9.190;2023-02-28T10:28:55;2.40;96.90
13174;DHT22;6652;48.802;9.190;2023-02-28T10:31:22;2.50;96.90
13174;DHT22;6652;48.802;9.190;2023-02-28T10:33:50;2.70;96.60
13174;DHT22;6652;48.802;9.190;2023-02-28T10:36:18;2.90;96.30
13174;DHT22;6652;48.802;9.190;2023-02-28T10:38:46;3.00;96.00
13174;DHT22;6652;48.802;9.190;2023-02-28T10:41:15;3.00;95.80
13174;DHT22;6652;48.802;9.190;2023-02-28T10:43:43;3.30;95.90
13174;DHT22;6652;48.802;9.190;2023-02-28T10:46:14;3.60;95.30
13174;DHT22;6652;48.802;9.190;2023-02-28T10:49:01;4.20;95.00
13174;DHT22;6652;48.802;9.190;2023-02-28T10:51:35;4.50;94.40
13174;DHT22;6652;48.802;9.190;2023-02-28T10:54:03;4.80;93.80
13174;DHT22;6652;48.802;9.190;2023-02-28T10:56:30;4.90;93.30
13174;DHT22;6652;48.802;9.190;2023-02-28T10:58:59;4.80;93.00
13174;DHT22;6652;48.802;9.190;2023-02-28T11:01:36;4.90;93.00
13174;DHT22;6652;48.802;9.190;2023-02-28T11:04:18;4.70;92.80
13174;DHT22;6652;48.802;9.190;2023-02-28T11:06:47;4.50;92.90
13174;DHT22;6652;48.802;9.190;2023-02-28T11:09:22;4.50;93.20
13174;DHT22;6652;48.802;9.190;2023-02-28T11:11:50;4.70;93.20
13174;DHT22;6652;48.802;9.190;2023-02-28T11:14:20;5.00;93.20
13174;DHT22;6652;48.802;9.190;2023-02-28T11:16:48;5.10;92.70
13174;DHT22;6652;48.802;9.190;2023-02-28T11:19:21;5.00;92.30
13174;DHT22;6652;48.802;9.190;2023-02-28T11:21:53;5.00;92.30
13174;DHT22;6652;48.802;9.190;2023-02-28T11:24:24;5.00;92.40
13174;DHT22;6652;48.802;9.190;2023-02-28T11:26:51;5.20;92.10
13174;DHT22;6652;48.802;9.190;2023-02-28T11:29:20;4.90;91.90
13174;DHT22;6652;48.802;9.190;2023-02-28T11:32:02;4.80;92.00
13174;DHT22;6652;48.802;9.190;2023-02-28T11:34:32;4.80;92.10
13174;DHT22;6652;48.802;9.190;2023-02-28T11:37:00;4.90;92.30
13174;DHT22;6652;48.802;9.190;2023-02-28T11:39:30;4.90;92.30
13174;DHT22;6652;48.802;9.190;2023-02-28T11:42:16;5.20;92.20
13174;DHT22;6652;48.802;9.190;2023-02-28T11:44:59;5.30;91.60
13174;DHT22;6652;48.802;9.190;2023-02-28T11:47:33;5.30;91.20
13174;DHT22;6652;48.802;9.190;2023-02-28T11:50:18;5.30;91.60
13174;DHT22;6652;48.802;9.190;2023-02-28T11:52:51;5.30;91.20
13174;DHT22;6652;48.802;9.190;2023-02-28T11:55:23;5.30;91.20
13174;DHT22;6652;48.802;9.190;2023-02-28T11:58:21;5.30;91.20
13174;DHT22;6652;48.802;9.190;2023-02-28T12:01:01;5.40;91.30
13174;DHT22;6652;48.802;9.190;2023-02-28T12:03:36;5.40;91.20
13174;DHT22;6652;48.802;9.190;2023-02-28T12:06:18;5.40;91.00
13174;DHT22;6652;48.802;9.190;2023-02-28T12:08:58;5.50;91.00
13174;DHT22;6652;48.802;9.190;2023-02-28T12:11:40;5.70;90.80
13174;DHT22;6652;48.802;9.190;2023-02-28T12:14:44;5.70;90.40
13174;DHT22;6652;48.802;9.190;2023-02-28T12:17:25;5.50;90.50
13174;DHT22;6652;48.802;9.190;2023-02-28T12:20:02;5.40;90.70
13174;DHT22;6652;48.802;9.190;2023-02-28T12:22:37;5.50;90.80
13174;DHT22;6652;48.802;9.190;2023-02-28T12:28:02;5.70;90.50
13174;DHT22;6652;48.802;9.190;2023-02-28T12:30:32;5.80;90.40
13174;DHT22;6652;48.802;9.190;2023-02-28T12:33:04;5.80;90.50
13174;DHT22;6652;48.802;9.190;2023-02-28T12:35:33;5.80;90.50
13174;DHT22;6652;48.802;9.190;2023-02-28T12:38:06;5.80;90.10
13174;DHT22;6652;48.802;9.190;2023-02-28T12:40:43;5.90;90.40
13174;DHT22;6652;48.802;9.190;2023-02-28T12:43:13;6.00;90.20
13174;DHT22;6652;48.802;9.190;2023-02-28T12:45:44;6.00;90.00
13174;DHT22;6652;48.802;9.190;2023-02-28T12:48:16;6.20;90.10
13174;DHT22;6652;48.802;9.190;2023-02-28T12:50:45;6.20;89.70
13174;DHT22;6652;48.802;9.190;2023-02-28T12:53:21;6.60;90.00
13174;DHT22;6652;48.802;9.190;2023-02-28T12:56:00;6.20;88.90
13174;DHT22;6652;48.802;9.190;2023-02-28T12:58:34;6.30;89.10
13174;DHT22;6652;48.802;9.190;2023-02-28T13:01:30;6.30;88.50
13174;DHT22;6652;48.802;9.190;2023-02-28T13:04:26;6.30;87.70
13174;DHT22;6652;48.802;9.190;2023-02-28T13:07:13;6.20;88.60
13174;DHT22;6652;48.802;9.190;2023-02-28T13:10:04;6.20;88.20
13174;DHT22;6652;48.802;9.190;2023-02-28T13:12:33;6.10;88.30
13174;DHT22;6652;48.802;9.190;2023-02-28T13:15:05;6.00;87.70
13174;DHT22;6652;48.802;9.190;2023-02-28T13:17:37;6.00;88.00
13174;DHT22;6652;48.802;9.190;2023-02-28T13:20:15;6.10;87.70
13174;DHT22;6652;48.802;9.190;2023-02-28T13:22:43;6.10;87.20
13174;DHT22;6652;48.802;9.190;2023-02-28T13:34:40;6.30;86.50
13174;DHT22;6652;48.802;9.190;2023-02-28T13:37:32;6.10;87.40
13174;DHT22;6652;48.802;9.190;2023-02-28T13:40:22;6.00;86.60
13174;DHT22;6652;48.802;9.190;2023-02-28T13:42:52;5.90;86.30
13174;DHT22;6652;48.802;9.190;2023-02-28T13:45:23;5.90;86.90
13174;DHT22;6652;48.802;9.190;2023-02-28T13:47:54;5.90;87.10
13174;DHT22;6652;48.802;9.190;2023-02-28T13:50:28;5.80;87.20
13174;DHT22;6652;48.802;9.190;2023-02-28T13:53:29;6.00;87.10
13174;DHT22;6652;48.802;9.190;2023-02-28T13:56:04;5.90;87.10
13174;DHT22;6652;48.802;9.190;2023-02-28T13:58:43;5.80;86.50
13174;DHT22;6652;48.802;9.190;2023-02-28T14:01:31;5.70;87.00
13174;DHT22;6652;48.802;9.190;2023-02-28T14:04:27;5.70;87.20
13174;DHT22;6652;48.802;9.190;2023-02-28T14:06:59;5.80;86.80
13174;DHT22;6652;48.802;9.190;2023-02-28T14:09:31;5.80;86.90
13174;DHT22;6652;48.802;9.190;2023-02-28T14:15:26;6.10;86.30
13174;DHT22;6652;48.802;9.190;2023-02-28T14:17:54;6.00;85.70
13174;DHT22;6652;48.802;9.190;2023-02-28T14:20:27;6.00;86.20
13174;DHT22;6652;48.802;9.190;2023-02-28T14:23:06;6.00;86.20
13174;DHT22;6652;48.802;9.190;2023-02-28T14:25:39;5.90;85.70
13174;DHT22;6652;48.802;9.190;2023-02-28T14:28:16;5.90;86.10
13174;DHT22;6652;48.802;9.190;2023-02-28T14:30:56;6.00;86.30
13174;DHT22;6652;48.802;9.190;2023-02-28T14:33:38;6.00;86.80
13174;DHT22;6652;48.802;9.190;2023-02-28T14:36:16;5.90;86.40
13174;DHT22;6652;48.802;9.190;2023-02-28T14:38:47;5.90;86.30
13174;DHT22;6652;48.802;9.190;2023-02-28T14:41:23;5.90;86.30
13174;DHT22;6652;48.802;9.190;2023-02-28T14:43:55;6.10;86.70
13174;DHT22;6652;48.802;9.190;2023-02-28T14:46:30;6.10;86.50
13174;DHT22;6652;48.802;9.190;2023-02-28T14:49:03;6.20;86.30
13174;DHT22;6652;48.802;9.190;2023-02-28T14:51:47;6.20;86.40
13174;DHT22;6652;48.802;9.190;2023-02-28T14:54:21;6.20;86.30
13174;DHT22;6652;48.802;9.190;2023-02-28T14:56:50;6.70;86.80
13174;DHT22;6652;48.802;9.190;2023-02-28T14:59:25;6.10;86.00
13174;DHT22;6652;48.802;9.190;2023-02-28T15:01:52;6.10;86.30
13174;DHT22;6652;48.802;9.190;2023-02-28T15:04:34;6.00;86.50
13174;DHT22;6652;48.802;9.190;2023-02-28T15:07:07;6.00;86.90
13174;DHT22;6652;48.802;9.190;2023-02-28T15:09:35;6.00;86.60
13174;DHT22;6652;48.802;9.190;2023-02-28T15:12:03;5.90;87.10
13174;DHT22;6652;48.802;9.190;2023-02-28T15:14:30;5.90;87.80
13174;DHT22;6652;48.802;9.190;2023-02-28T15:16:59;5.90;87.10
13174;DHT22;6652;48.802;9.190;2023-02-28T15:19:30;5.80;86.80
13174;DHT22;6652;48.802;9.190;2023-02-28T15:22:02;5.70;86.80
13174;DHT22;6652;48.802;9.190;2023-02-28T15:24:38;5.70;87.20
13174;DHT22;6652;48.802;9.190;2023-02-28T15:27:11;5.60;87.50
13174;DHT22;6652;48.802;9.190;2023-02-28T15:29:44;5.80;88.10
13174;DHT22;6652;48.802;9.190;2023-02-28T15:32:24;5.60;88.30
13174;DHT22;6652;48.802;9.190;2023-02-28T15:34:52;6.00;88.90
13174;DHT22;6652;48.802;9.190;2023-02-28T15:37:39;5.60;88.50
13174;DHT22;6652;48.802;9.190;2023-02-28T15:40:14;5.60;88.70
13174;DHT22;6652;48.802;9.190;2023-02-28T15:42:42;5.60;88.70
13174;DHT22;6652;48.802;9.190;2023-02-28T15:45:28;5.50;88.70
13174;DHT22;6652;48.802;9.190;2023-02-28T15:47:57;5.50;89.00
13174;DHT22;6652;48.802;9.190;2023-02-28T15:50:24;5.40;88.90
13174;DHT22;6652;48.802;9.190;2023-02-28T15:52:55;5.40;88.90
13174;DHT22;6652;48.802;9.190;2023-02-28T15:55:26;5.40;89.10
13174;DHT22;6652;48.802;9.190;2023-02-28T15:57:55;5.30;89.10
13174;DHT22;6652;48.802;9.190;2023-02-28T16:00:25;5.30;89.20
13174;DHT22;6652;48.802;9.190;2023-02-28T16:02:52;5.20;89.40
13174;DHT22;6652;48.802;9.190;2023-02-28T16:05:22;5.20;89.80
13174;DHT22;6652;48.802;9.190;2023-02-28T16:07:54;5.10;90.00
13174;DHT22;6652;48.802;9.190;2023-02-28T16:10:23;5.10;90.10
13174;DHT22;6652;48.802;9.190;2023-02-28T16:12:53;5.10;90.20
13174;DHT22;6652;48.802;9.190;2023-02-28T16:15:22;5.00;90.00
13174;DHT22;6652;48.802;9.190;2023-02-28T16:17:50;5.00;90.10
13174;DHT22;6652;48.802;9.190;2023-02-28T16:20:19;4.90;90.20
13174;DHT22;6652;48.802;9.190;2023-02-28T16:22:46;4.80;90.30
13174;DHT22;6652;48.802;9.190;2023-02-28T16:25:14;4.80;90.40
13174;DHT22;6652;48.802;9.190;2023-02-28T16:27:44;4.80;90.60
13174;DHT22;6652;48.802;9.190;2023-02-28T16:30:17;4.70;90.80
13174;DHT22;6652;48.802;9.190;2023-02-28T16:32:45;4.60;90.90
13174;DHT22;6652;48.802;9.190;2023-02-28T16:35:12;4.60;90.90
13174;DHT22;6652;48.802;9.190;2023-02-28T16:37:39;4.60;90.90
13174;DHT22;6652;48.802;9.190;2023-02-28T16:40:08;4.50;90.80
13174;DHT22;6652;48.802;9.190;2023-02-28T16:42:37;4.50;90.80
13174;DHT22;6652;48.802;9.190;2023-02-28T16:45:15;4.40;90.90